Time;durP1;ratioP1;P1;durP2;ratioP2;P2;SDS_P1;SDS_P2;PMS_P1;PMS_P2;Temp;Humidity;BMP_temperature;BMP_pressure;BME280_temperature;BME280_humidity;BME280_pressure;Samples;Min_cycle;Max_cycle;Signal;HPM_P1;HPM_P2
2022/07/17 00:01:27;;;;;;;6.43;2.22;;;12.80;93.60;;;;;;5006222;28;20061;-45
2022/07/17 00:03:53;;;;;;;5.53;2.15;;;12.80;93.70;;;;;;5005976;28;20061;-44
2022/07/17 00:06:18;;;;;;;7.75;2.25;;;12.80;93.80;;;;;;5005162;28;20124;-44
2022/07/17 00:08:44;;;;;;;6.13;1.98;;;12.80;94.20;;;;;;5006111;28;20113;-47
2022/07/17 00:11:09;;;;;;;8.88;2.38;;;12.70;94.50;;;;;;5005885;28;20065;-44
2022/07/17 00:13:35;;;;;;;6.18;1.77;;;12.70;94.60;;;;;;5006048;28;20033;-44
2022/07/17 00:16:00;;;;;;;7.20;2.28;;;12.70;94.80;;;;;;5005387;28;20026;-44
2022/07/17 00:18:26;;;;;;;7.45;2.08;;;12.70;94.90;;;;;;5013742;28;20028;-45
2022/07/17 00:20:52;;;;;;;6.00;2.33;;;12.70;95.20;;;;;;5059910;28;20478;-44
2022/07/17 00:23:18;;;;;;;5.43;2.10;;;12.60;95.50;;;;;;5025691;28;20443;-43
2022/07/17 00:25:44;;;;;;;3.70;2.08;;;12.60;95.80;;;;;;5025513;28;20309;-44
2022/07/17 00:28:10;;;;;;;5.72;2.33;;;12.60;96.00;;;;;;5025617;28;20511;-44
2022/07/17 00:30:36;;;;;;;10.50;1.70;;;12.60;96.40;;;;;;5025632;28;20489;-44
2022/07/17 00:33:03;;;;;;;8.60;2.28;;;12.50;96.80;;;;;;5025512;28;20022;-44
2022/07/17 00:35:28;;;;;;;8.13;2.40;;;12.50;97.20;;;;;;5024540;28;20029;-44
2022/07/17 00:37:54;;;;;;;5.82;2.13;;;12.50;97.60;;;;;;5025027;28;20375;-44
2022/07/17 00:40:22;;;;;;;4.05;2.13;;;12.50;97.90;;;;;;5025277;28;20179;-43
2022/07/17 00:42:49;;;;;;;6.53;2.00;;;12.40;98.20;;;;;;5025528;28;20056;-43
2022/07/17 00:45:15;;;;;;;6.70;2.05;;;12.40;98.70;;;;;;5024666;28;20392;-44
2022/07/17 00:47:55;;;;;;;10.45;2.85;;;12.30;98.80;;;;;;5019098;28;20030;-44
2022/07/17 00:50:26;;;;;;;6.60;2.05;;;12.30;99.30;;;;;;5059397;28;20312;-43
2022/07/17 00:52:52;;;;;;;7.88;2.20;;;12.30;99.60;;;;;;5025496;28;20033;-43
2022/07/17 00:55:18;;;;;;;4.45;1.80;;;12.30;99.80;;;;;;5023227;28;20105;-43
2022/07/17 00:57:46;;;;;;;4.30;1.92;;;12.30;99.90;;;;;;5024994;28;20103;-44
2022/07/17 01:00:12;;;;;;;8.13;2.42;;;12.30;99.90;;;;;;5023802;28;20026;-43
2022/07/17 01:02:38;;;;;;;7.22;2.42;;;12.20;99.90;;;;;;5025095;28;20033;-45
2022/07/17 01:05:05;;;;;;;2.83;1.73;;;12.20;99.90;;;;;;5024298;28;20110;-43
2022/07/17 01:07:31;;;;;;;8.85;2.20;;;12.10;99.90;;;;;;5025063;28;20030;-44
2022/07/17 01:09:57;;;;;;;7.13;2.33;;;12.10;99.90;;;;;;5024980;28;20037;-43
2022/07/17 01:12:24;;;;;;;3.30;1.92;;;12.10;99.90;;;;;;5024761;28;20033;-43
2022/07/17 01:14:51;;;;;;;3.03;1.80;;;12.10;99.90;;;;;;5023044;28;20108;-44
2022/07/17 01:17:17;;;;;;;5.43;1.95;;;12.10;99.90;;;;;;5019951;28;20075;-45
2022/07/17 01:19:42;;;;;;;8.98;2.95;;;12.10;99.90;;;;;;5010547;28;20367;-43
2022/07/17 01:22:08;;;;;;;6.70;2.40;;;12.10;99.90;;;;;;5007649;28;20113;-43
2022/07/17 01:24:33;;;;;;;4.82;2.20;;;12.10;99.90;;;;;;5007391;28;20276;-44
2022/07/17 01:26:59;;;;;;;8.77;1.98;;;12.10;99.90;;;;;;5013165;28;20496;-43
2022/07/17 01:29:24;;;;;;;7.65;2.55;;;12.10;99.90;;;;;;5008188;28;20034;-44
2022/07/17 01:31:50;;;;;;;6.40;2.28;;;12.10;99.90;;;;;;5007921;28;20395;-43
2022/07/17 01:34:15;;;;;;;6.60;2.00;;;12.10;99.90;;;;;;5006133;28;20028;-44
2022/07/17 01:36:41;;;;;;;6.22;2.40;;;12.10;99.90;;;;;;5006741;28;20108;-44
2022/07/17 01:39:07;;;;;;;5.00;2.42;;;12.10;99.90;;;;;;5006506;28;20335;-44
2022/07/17 01:41:33;;;;;;;5.25;2.20;;;12.00;99.90;;;;;;4991722;28;20025;-43
2022/07/17 01:43:58;;;;;;;9.15;1.95;;;12.00;99.90;;;;;;4988062;28;20022;-44
2022/07/17 01:46:24;;;;;;;9.02;2.15;;;12.00;99.90;;;;;;4978434;28;20038;-43
2022/07/17 01:48:50;;;;;;;4.20;2.00;;;12.00;99.90;;;;;;4987341;28;20105;-45
2022/07/17 01:51:16;;;;;;;7.10;2.60;;;11.90;99.90;;;;;;4988629;28;20274;-43
2022/07/17 01:53:41;;;;;;;5.97;2.35;;;11.90;99.90;;;;;;4988951;28;20022;-44
2022/07/17 01:56:07;;;;;;;10.73;3.08;;;11.80;99.90;;;;;;5011830;28;20022;-43
2022/07/17 01:58:33;;;;;;;6.85;3.05;;;11.80;99.90;;;;;;4992785;28;20093;-44
2022/07/17 02:00:59;;;;;;;8.95;2.28;;;11.80;99.90;;;;;;4988469;28;20034;-43
2022/07/17 02:03:25;;;;;;;7.18;2.25;;;11.80;99.90;;;;;;4988504;28;20092;-44
2022/07/17 02:05:50;;;;;;;5.60;2.67;;;11.70;99.90;;;;;;4987154;28;20179;-44
2022/07/17 02:08:16;;;;;;;8.05;3.03;;;11.60;99.90;;;;;;4996789;28;20042;-44
2022/07/17 02:10:41;;;;;;;9.93;2.50;;;11.60;99.90;;;;;;5023091;28;20039;-44
2022/07/17 02:13:07;;;;;;;5.03;2.17;;;11.60;99.90;;;;;;4988413;28;20022;-44
2022/07/17 02:15:32;;;;;;;7.97;2.75;;;11.50;99.90;;;;;;4987605;28;20510;-44
2022/07/17 02:17:58;;;;;;;8.25;2.75;;;11.40;99.90;;;;;;4988654;28;20026;-45
2022/07/17 02:20:24;;;;;;;5.30;2.20;;;11.30;99.90;;;;;;4987955;28;20026;-44
2022/07/17 02:22:50;;;;;;;9.48;2.30;;;11.40;99.90;;;;;;4987678;28;20031;-44
2022/07/17 02:25:15;;;;;;;7.97;2.38;;;11.30;99.90;;;;;;4987325;28;20022;-44
2022/07/17 02:27:42;;;;;;;6.97;2.17;;;11.30;99.90;;;;;;4987815;28;20026;-44
2022/07/17 02:30:16;;;;;;;6.07;2.17;;;11.10;99.90;;;;;;4986530;28;20121;-44
2022/07/17 02:32:42;;;;;;;4.15;1.90;;;11.10;99.90;;;;;;4987713;28;20041;-44
2022/07/17 02:35:09;;;;;;;4.97;2.08;;;11.10;99.90;;;;;;4987371;28;20056;-44
2022/07/17 02:37:36;;;;;;;7.63;2.30;;;11.10;99.90;;;;;;4999018;28;20055;-44
2022/07/17 02:40:02;;;;;;;5.90;2.00;;;11.20;99.90;;;;;;5035524;28;20045;-43
2022/07/17 02:42:28;;;;;;;7.07;2.60;;;11.20;99.90;;;;;;5006054;28;20475;-44
2022/07/17 02:44:55;;;;;;;3.83;2.00;;;11.20;99.90;;;;;;4996516;28;20117;-44
2022/07/17 02:47:27;;;;;;;11.82;2.60;;;11.30;99.90;;;;;;4987147;28;20034;-44
2022/07/17 02:49:53;;;;;;;4.70;2.33;;;11.30;99.90;;;;;;4987873;28;20029;-46
2022/07/17 02:52:19;;;;;;;10.95;2.60;;;11.30;99.90;;;;;;4987043;28;20308;-44
2022/07/17 02:54:45;;;;;;;7.53;2.50;;;11.30;99.90;;;;;;4987216;28;20676;-45
2022/07/17 02:57:12;;;;;;;9.27;2.88;;;11.40;99.90;;;;;;4987417;28;20510;-44
2022/07/17 02:59:37;;;;;;;5.70;2.25;;;11.30;99.90;;;;;;4987402;28;20118;-44
2022/07/17 03:02:03;;;;;;;8.32;2.20;;;11.30;99.90;;;;;;4987795;28;20433;-44
2022/07/17 03:04:29;;;;;;;9.55;2.55;;;11.30;99.90;;;;;;4986734;28;20026;-44
2022/07/17 03:06:54;;;;;;;3.22;2.42;;;11.30;99.90;;;;;;4990381;28;20395;-43
2022/07/17 03:09:20;;;;;;;9.38;2.58;;;11.30;99.90;;;;;;5041104;28;20080;-44
2022/07/17 03:11:45;;;;;;;6.53;2.17;;;11.40;99.90;;;;;;5006160;28;20446;-43
2022/07/17 03:14:11;;;;;;;5.65;2.45;;;11.40;99.90;;;;;;5005908;28;20041;-44
2022/07/17 03:16:36;;;;;;;12.02;2.65;;;11.40;99.90;;;;;;5006424;28;20030;-45
2022/07/17 03:19:02;;;;;;;6.97;2.50;;;11.40;99.90;;;;;;5006488;28;20575;-44
2022/07/17 03:21:28;;;;;;;5.63;2.45;;;11.40;99.90;;;;;;5006275;28;20530;-44
2022/07/17 03:23:53;;;;;;;10.13;2.97;;;11.40;99.90;;;;;;5006143;28;20131;-44
2022/07/17 03:26:18;;;;;;;15.23;2.97;;;11.40;99.90;;;;;;5006594;28;20061;-44
2022/07/17 03:28:44;;;;;;;7.45;2.67;;;11.40;99.90;;;;;;5006676;28;20199;-44
2022/07/17 03:31:09;;;;;;;5.88;2.80;;;11.40;99.90;;;;;;5005480;28;20112;-44
2022/07/17 03:33:35;;;;;;;8.25;2.35;;;11.30;99.90;;;;;;5006617;28;20041;-44
2022/07/17 03:36:00;;;;;;;8.32;2.75;;;11.30;99.90;;;;;;5002352;28;20505;-44
2022/07/17 03:38:26;;;;;;;9.98;2.80;;;11.30;99.90;;;;;;5035591;28;20465;-44
2022/07/17 03:40:51;;;;;;;11.05;2.75;;;11.30;99.90;;;;;;5005697;28;20022;-44
2022/07/17 03:43:17;;;;;;;8.27;2.95;;;11.30;99.90;;;;;;5005070;28;20036;-44
2022/07/17 03:45:42;;;;;;;8.25;3.15;;;11.30;99.90;;;;;;5006157;28;20026;-44
2022/07/17 03:48:08;;;;;;;6.43;2.53;;;11.30;99.90;;;;;;5005285;28;20030;-45
2022/07/17 03:50:34;;;;;;;6.50;2.63;;;11.30;99.90;;;;;;5006394;28;20614;-45
2022/07/17 03:52:59;;;;;;;6.10;2.60;;;11.30;99.90;;;;;;5006021;28;20049;-46
2022/07/17 03:55:25;;;;;;;10.75;2.70;;;11.30;99.90;;;;;;5005672;28;20033;-47
2022/07/17 03:57:50;;;;;;;6.55;2.20;;;11.30;99.90;;;;;;5006564;28;20044;-44
2022/07/17 04:00:16;;;;;;;6.97;2.30;;;11.30;99.90;;;;;;5006502;28;20014;-44
2022/07/17 04:02:42;;;;;;;7.35;2.30;;;11.30;99.90;;;;;;5006208;28;20025;-44
2022/07/17 04:05:09;;;;;;;9.30;2.45;;;11.40;99.90;;;;;;5005500;28;20040;-43
2022/07/17 04:07:39;;;;;;;6.63;2.83;;;11.40;99.90;;;;;;5000521;28;20057;-47
2022/07/17 04:10:06;;;;;;;6.95;2.30;;;11.40;99.90;;;;;;5033497;28;20219;-45
2022/07/17 04:12:31;;;;;;;12.68;2.83;;;11.40;99.90;;;;;;5005924;28;20113;-44
2022/07/17 04:14:57;;;;;;;9.93;2.60;;;11.40;99.90;;;;;;5005416;28;20160;-45
2022/07/17 04:17:23;;;;;;;10.95;2.65;;;11.40;99.90;;;;;;5006351;28;20267;-45
2022/07/17 04:19:49;;;;;;;6.47;2.78;;;11.50;99.90;;;;;;5004676;28;20454;-45
2022/07/17 04:22:15;;;;;;;8.57;2.53;;;11.40;99.90;;;;;;5005649;28;20026;-47
2022/07/17 04:24:41;;;;;;;17.58;4.20;;;11.50;99.90;;;;;;5003866;28;20033;-45
2022/07/17 04:27:07;;;;;;;9.95;2.90;;;11.50;99.90;;;;;;5005814;28;20034;-45
2022/07/17 04:29:34;;;;;;;11.75;2.78;;;11.50;99.90;;;;;;5005668;28;20041;-45
2022/07/17 04:31:59;;;;;;;9.48;2.67;;;11.50;99.90;;;;;;5005845;28;20204;-44
2022/07/17 04:34:25;;;;;;;7.35;2.70;;;11.60;99.90;;;;;;5005090;28;20441;-45
2022/07/17 04:36:51;;;;;;;11.85;2.90;;;11.70;99.90;;;;;;4998120;28;20056;-46
2022/07/17 04:39:16;;;;;;;6.45;2.40;;;11.60;99.90;;;;;;5039001;28;20070;-46
2022/07/17 04:41:42;;;;;;;11.45;3.10;;;11.70;99.90;;;;;;5005826;28;20030;-45
2022/07/17 04:44:07;;;;;;;14.40;3.17;;;11.80;99.90;;;;;;5005217;28;20104;-47
2022/07/17 04:46:33;;;;;;;7.28;3.05;;;11.90;99.90;;;;;;5004473;28;20030;-48
2022/07/17 04:48:58;;;;;;;12.38;2.90;;;11.90;99.90;;;;;;5004304;28;20034;-45
2022/07/17 04:51:24;;;;;;;7.22;3.10;;;12.00;99.90;;;;;;5004070;28;20058;-45
2022/07/17 04:53:50;;;;;;;12.80;2.80;;;12.10;99.90;;;;;;5005338;28;20116;-47
2022/07/17 04:56:15;;;;;;;7.28;2.75;;;12.10;99.90;;;;;;5007384;28;20158;-45
2022/07/17 04:58:41;;;;;;;8.02;2.67;;;12.20;99.90;;;;;;5007703;28;20029;-45
2022/07/17 05:01:06;;;;;;;13.27;3.28;;;12.20;99.90;;;;;;5009039;28;20030;-47
2022/07/17 05:03:32;;;;;;;15.15;3.28;;;12.30;99.90;;;;;;5009230;28;20033;-46
2022/07/17 05:05:57;;;;;;;5.75;2.72;;;12.40;99.90;;;;;;5005079;28;20096;-44
2022/07/17 05:08:23;;;;;;;8.02;2.55;;;12.40;99.90;;;;;;5035998;28;20076;-46
2022/07/17 05:10:48;;;;;;;7.15;2.50;;;12.40;99.90;;;;;;5011284;28;20147;-44
2022/07/17 05:13:14;;;;;;;7.18;2.25;;;12.40;99.90;;;;;;5008630;28;20079;-45
2022/07/17 05:15:39;;;;;;;10.80;2.67;;;12.50;99.90;;;;;;5008038;28;20022;-45
2022/07/17 05:18:05;;;;;;;15.95;2.97;;;12.50;99.90;;;;;;5008762;28;20026;-45
2022/07/17 05:20:30;;;;;;;10.32;2.90;;;12.60;99.90;;;;;;5008692;28;20034;-45
2022/07/17 05:22:56;;;;;;;10.20;2.53;;;12.60;99.90;;;;;;5007111;28;20034;-45
2022/07/17 05:25:22;;;;;;;14.32;3.63;;;12.70;99.90;;;;;;5007785;28;20026;-44
2022/07/17 05:27:47;;;;;;;10.95;2.92;;;12.70;99.90;;;;;;5008328;28;20032;-46
2022/07/17 05:30:13;;;;;;;13.07;2.90;;;12.70;99.90;;;;;;5008582;28;20034;-45
2022/07/17 05:32:38;;;;;;;7.93;2.58;;;12.80;99.90;;;;;;5008384;28;20089;-47
2022/07/17 05:35:04;;;;;;;8.40;2.50;;;13.00;99.90;;;;;;5007966;28;20026;-45
2022/07/17 05:37:30;;;;;;;8.52;2.88;;;13.00;99.90;;;;;;5001404;28;20087;-45
2022/07/17 05:39:55;;;;;;;10.27;2.80;;;13.20;99.90;;;;;;5041269;28;20436;-46
2022/07/17 05:42:21;;;;;;;9.43;2.60;;;13.30;99.90;;;;;;5006835;28;20022;-46
2022/07/17 05:44:46;;;;;;;13.63;3.20;;;13.40;99.90;;;;;;5007848;28;20056;-46
2022/07/17 05:47:12;;;;;;;8.40;3.10;;;13.50;99.90;;;;;;5008720;28;20475;-46
2022/07/17 05:49:37;;;;;;;9.75;3.22;;;13.60;99.90;;;;;;5006983;28;20292;-45
2022/07/17 05:52:03;;;;;;;8.10;2.88;;;13.70;99.90;;;;;;5008185;28;20038;-45
2022/07/17 05:54:28;;;;;;;9.02;2.53;;;13.80;99.90;;;;;;5007760;28;20100;-45
2022/07/17 05:56:54;;;;;;;5.57;2.05;;;13.90;99.90;;;;;;5008279;28;20505;-46
2022/07/17 05:59:19;;;;;;;7.65;2.63;;;14.00;99.90;;;;;;5008177;28;20040;-45
2022/07/17 06:01:45;;;;;;;7.63;2.42;;;14.10;99.90;;;;;;5008049;28;20037;-45
2022/07/17 06:04:10;;;;;;;11.23;2.58;;;14.10;99.90;;;;;;5007043;28;20144;-45
2022/07/17 06:06:36;;;;;;;9.05;2.67;;;14.30;99.90;;;;;;5000350;28;20058;-45
2022/07/17 06:09:02;;;;;;;12.50;3.88;;;14.30;99.90;;;;;;5040891;28;20612;-44
2022/07/17 06:11:27;;;;;;;4.70;2.05;;;14.40;99.90;;;;;;5006420;28;20038;-45
2022/07/17 06:13:53;;;;;;;6.10;2.35;;;14.50;99.90;;;;;;5007607;28;20030;-45
2022/07/17 06:16:18;;;;;;;6.78;2.40;;;14.60;99.90;;;;;;5007430;28;20379;-46
2022/07/17 06:18:44;;;;;;;8.68;2.35;;;14.80;99.90;;;;;;5008209;28;20052;-44
2022/07/17 06:21:09;;;;;;;6.28;2.30;;;15.00;99.90;;;;;;5007948;28;20022;-44
2022/07/17 06:23:35;;;;;;;11.70;2.38;;;15.00;99.90;;;;;;5007421;28;20580;-45
2022/07/17 06:26:00;;;;;;;8.15;2.70;;;15.20;99.90;;;;;;5006911;28;20423;-44
2022/07/17 06:28:26;;;;;;;6.10;2.38;;;15.30;99.90;;;;;;5007663;28;20060;-45
2022/07/17 06:30:51;;;;;;;14.00;2.65;;;15.50;99.90;;;;;;5007773;28;20033;-44
2022/07/17 06:33:17;;;;;;;6.35;2.38;;;15.60;99.90;;;;;;5007788;28;20680;-44
2022/07/17 06:35:42;;;;;;;12.40;2.17;;;15.80;99.90;;;;;;5005724;28;20030;-44
2022/07/17 06:38:10;;;;;;;6.45;2.40;;;15.80;99.90;;;;;;5024111;28;20016;-46
2022/07/17 06:40:36;;;;;;;9.10;2.40;;;16.00;99.90;;;;;;5017417;28;20018;-44
2022/07/17 06:43:01;;;;;;;4.30;2.15;;;15.90;99.90;;;;;;5007664;28;20228;-45
2022/07/17 06:45:26;;;;;;;5.55;2.30;;;16.10;99.90;;;;;;5006950;28;20026;-44
2022/07/17 06:47:52;;;;;;;9.60;2.30;;;16.10;99.90;;;;;;5007515;28;20570;-44
2022/07/17 06:50:17;;;;;;;10.07;2.75;;;16.10;99.90;;;;;;5007420;28;20026;-44
2022/07/17 06:52:43;;;;;;;9.07;3.28;;;16.10;99.90;;;;;;5005696;28;20030;-47
2022/07/17 06:55:08;;;;;;;6.70;2.50;;;16.20;99.90;;;;;;5006470;28;20030;-47
2022/07/17 06:57:34;;;;;;;7.32;1.77;;;16.30;99.90;;;;;;5007171;28;20392;-44
2022/07/17 07:00:00;;;;;;;7.78;2.38;;;16.30;99.90;;;;;;5007093;28;20501;-45
2022/07/17 07:02:25;;;;;;;7.03;2.42;;;16.40;99.90;;;;;;5005732;28;20029;-46
2022/07/17 07:04:51;;;;;;;11.77;2.70;;;16.30;99.90;;;;;;5006398;28;20033;-46
2022/07/17 07:07:16;;;;;;;5.55;1.90;;;16.30;99.90;;;;;;4997962;28;20022;-46
2022/07/17 07:09:42;;;;;;;10.85;2.95;;;16.20;99.90;;;;;;5040888;28;20034;-46
2022/07/17 07:12:07;;;;;;;8.68;2.20;;;16.30;99.90;;;;;;5005409;28;20479;-43
2022/07/17 07:14:33;;;;;;;9.38;2.20;;;16.40;99.90;;;;;;5006248;28;20030;-46
2022/07/17 07:16:58;;;;;;;9.30;2.08;;;16.30;99.90;;;;;;5004722;28;20380;-43
2022/07/17 07:19:24;;;;;;;4.68;2.08;;;16.30;99.90;;;;;;5006742;28;20041;-44
2022/07/17 07:21:49;;;;;;;11.60;2.30;;;16.40;99.90;;;;;;5006856;28;20034;-44
2022/07/17 07:24:15;;;;;;;10.82;2.30;;;16.30;99.50;;;;;;5005938;28;20058;-44
2022/07/17 07:26:40;;;;;;;9.25;2.22;;;16.20;99.90;;;;;;5006768;28;20443;-45
2022/07/17 07:29:06;;;;;;;7.80;2.33;;;16.40;99.90;;;;;;5007328;28;20493;-45
2022/07/17 07:31:32;;;;;;;8.30;2.53;;;16.30;99.50;;;;;;5006824;28;20391;-44
2022/07/17 07:33:58;;;;;;;13.63;3.08;;;16.40;99.80;;;;;;5006703;28;20097;-44
2022/07/17 07:36:23;;;;;;;9.75;2.45;;;16.40;99.20;;;;;;4999751;28;20165;-44
2022/07/17 07:38:49;;;;;;;15.93;2.55;;;16.60;98.90;;;;;;5040292;28;20312;-45
2022/07/17 07:41:14;;;;;;;7.13;2.17;;;16.70;98.80;;;;;;5006556;28;20026;-45
2022/07/17 07:43:40;;;;;;;8.25;2.55;;;17.00;98.80;;;;;;5006841;28;20026;-45
2022/07/17 07:46:05;;;;;;;6.93;2.13;;;17.20;98.40;;;;;;5006084;28;20318;-45
2022/07/17 07:48:31;;;;;;;6.43;1.75;;;17.20;97.60;;;;;;5006881;28;20026;-48
2022/07/17 07:50:57;;;;;;;8.88;2.50;;;17.40;97.90;;;;;;5006405;28;20065;-45
2022/07/17 07:53:22;;;;;;;7.38;2.50;;;17.50;97.80;;;;;;5006071;28;20029;-46
2022/07/17 07:55:48;;;;;;;8.35;2.50;;;17.60;97.10;;;;;;5005470;28;20422;-45
2022/07/17 07:58:14;;;;;;;9.02;2.45;;;17.70;96.70;;;;;;5006244;28;20102;-47
2022/07/17 08:00:43;;;;;;;7.85;2.35;;;17.70;96.60;;;;;;5006341;28;20387;-48
2022/07/17 08:03:09;;;;;;;5.93;2.17;;;17.80;96.90;;;;;;5005238;28;20049;-46
2022/07/17 08:05:34;;;;;;;6.30;1.88;;;18.10;96.40;;;;;;5005536;28;20038;-46
2022/07/17 08:08:00;;;;;;;10.02;2.20;;;18.30;95.90;;;;;;5017062;28;20447;-44
2022/07/17 08:10:26;;;;;;;4.25;1.58;;;18.90;94.80;;;;;;5021608;28;20042;-46
2022/07/17 08:12:52;;;;;;;5.43;1.95;;;19.20;93.90;;;;;;5006495;28;20063;-45
2022/07/17 08:15:19;;;;;;;5.85;2.33;;;19.70;93.20;;;;;;5005585;28;20405;-45
2022/07/17 08:17:46;;;;;;;4.80;2.00;;;19.60;92.40;;;;;;5004680;28;20033;-46
2022/07/17 08:20:12;;;;;;;10.27;2.50;;;19.60;91.60;;;;;;5005933;28;20097;-48
2022/07/17 08:22:37;;;;;;;8.43;2.25;;;19.40;91.90;;;;;;5005539;28;20022;-45
2022/07/17 08:25:03;;;;;;;7.03;2.05;;;19.60;92.10;;;;;;5005289;28;20091;-45
2022/07/17 08:27:36;;;;;;;10.82;2.70;;;19.90;92.30;;;;;;5006480;28;20045;-45
2022/07/17 08:30:03;;;;;;;6.05;1.80;;;20.70;90.80;;;;;;5009360;28;20254;-46
2022/07/17 08:32:29;;;;;;;10.10;2.45;;;21.00;89.40;;;;;;5009152;28;20022;-46
2022/07/17 08:34:54;;;;;;;4.50;1.75;;;20.80;88.00;;;;;;5008697;28;20143;-45
2022/07/17 08:37:20;;;;;;;3.72;1.58;;;21.20;87.90;;;;;;5001387;28;20030;-46
2022/07/17 08:39:45;;;;;;;8.32;2.30;;;21.70;87.00;;;;;;5043772;28;20509;-45
2022/07/17 08:42:15;;;;;;;8.15;1.90;;;22.50;83.30;;;;;;5009698;28;20332;-46
2022/07/17 08:44:41;;;;;;;8.02;2.10;;;22.90;81.80;;;;;;5008652;28;20058;-47
2022/07/17 08:47:07;;;;;;;3.38;1.98;;;23.00;78.70;;;;;;5009161;28;20062;-47
2022/07/17 08:49:35;;;;;;;8.00;2.47;;;23.10;78.00;;;;;;5009073;28;20049;-45
2022/07/17 08:52:01;;;;;;;7.70;2.03;;;22.80;78.20;;;;;;5008556;28;20471;-45
2022/07/17 08:54:26;;;;;;;5.35;1.77;;;22.70;79.70;;;;;;5007295;28;20022;-47
2022/07/17 08:56:52;;;;;;;8.07;2.35;;;22.70;77.90;;;;;;5008924;28;20104;-45
2022/07/17 08:59:17;;;;;;;6.40;2.17;;;22.80;77.90;;;;;;5009059;28;20104;-48
2022/07/17 09:01:43;;;;;;;4.68;1.55;;;23.30;76.70;;;;;;5009345;28;20357;-46
2022/07/17 09:04:09;;;;;;;8.73;1.88;;;24.20;74.60;;;;;;5008500;28;20026;-46
2022/07/17 09:06:36;;;;;;;5.75;1.33;;;24.00;73.20;;;;;;5000068;28;20487;-45
2022/07/17 09:09:07;;;;;;;5.53;1.63;;;25.10;72.40;;;;;;5042979;28;20101;-45
2022/07/17 09:12:00;;;;;;;6.50;1.67;;;26.50;68.70;;;;;;5008978;28;20079;-46
2022/07/17 09:14:37;;;;;;;6.15;1.90;;;26.40;66.70;;;;;;5003718;28;20125;-46
2022/07/17 09:17:04;;;;;;;4.88;1.83;;;26.50;65.90;;;;;;5008798;28;20026;-46
2022/07/17 09:19:34;;;;;;;5.00;1.73;;;25.80;66.60;;;;;;5008821;28;20037;-44
2022/07/17 09:22:22;;;;;;;7.55;1.85;;;25.10;67.40;;;;;;5008681;28;20036;-44
2022/07/17 09:24:48;;;;;;;5.30;1.73;;;25.60;66.20;;;;;;5007988;28;20018;-44
2022/07/17 09:27:23;;;;;;;5.70;1.95;;;26.80;64.90;;;;;;5007188;28;20039;-45
2022/07/17 09:30:07;;;;;;;6.60;1.88;;;28.10;62.00;;;;;;5007126;28;20026;-47
2022/07/17 09:32:41;;;;;;;9.38;2.35;;;28.80;59.50;;;;;;5007047;28;20480;-44
2022/07/17 09:35:09;;;;;;;7.97;2.08;;;28.10;59.80;;;;;;5033161;28;20033;-45
2022/07/17 09:37:35;;;;;;;8.35;2.00;;;27.80;60.30;;;;;;5008061;28;20154;-45
2022/07/17 09:40:07;;;;;;;6.70;1.73;;;28.20;58.80;;;;;;5007488;28;20056;-45
2022/07/17 09:42:34;;;;;;;7.60;2.00;;;28.20;59.30;;;;;;5008246;28;20032;-48
2022/07/17 09:45:08;;;;;;;5.10;1.63;;;28.40;58.80;;;;;;5007539;28;20341;-45
2022/07/17 09:47:37;;;;;;;4.95;1.60;;;28.30;57.60;;;;;;5008190;28;20102;-45
2022/07/17 09:50:04;;;;;;;6.00;1.77;;;28.10;58.10;;;;;;5008492;28;20367;-46
2022/07/17 09:52:37;;;;;;;6.20;1.90;;;27.70;57.20;;;;;;5007706;28;20037;-45
2022/07/17 09:55:05;;;;;;;7.47;1.75;;;27.20;59.10;;;;;;5007406;28;20029;-46
2022/07/17 09:57:33;;;;;;;5.20;1.67;;;27.10;60.10;;;;;;5008031;28;20025;-45
2022/07/17 10:00:02;;;;;;;3.55;1.65;;;27.30;58.30;;;;;;5007815;28;20106;-50
2022/07/17 10:02:28;;;;;;;7.37;2.23;;;28.10;57.50;;;;;;5004722;28;20037;-47
2022/07/17 10:04:54;;;;;;;6.30;2.05;;;28.70;57.20;;;;;;4990061;28;20037;-47
2022/07/17 10:07:20;;;;;;;5.60;1.63;;;29.20;56.30;;;;;;5007763;28;20029;-47
2022/07/17 10:09:46;;;;;;;5.25;2.05;;;29.70;55.80;;;;;;5007896;28;20083;-45
2022/07/17 10:12:13;;;;;;;4.20;1.83;;;29.50;55.40;;;;;;5007779;28;20034;-49
2022/07/17 10:14:41;;;;;;;5.25;1.70;;;30.30;54.00;;;;;;5005839;28;20487;-46
2022/07/17 10:17:11;;;;;;;6.78;1.90;;;30.80;53.10;;;;;;5007841;28;20026;-46
2022/07/17 10:19:56;;;;;;;6.70;1.67;;;31.10;52.20;;;;;;5007720;28;20026;-47
2022/07/17 10:22:23;;;;;;;5.65;1.55;;;31.60;51.90;;;;;;5007460;28;20033;-49
2022/07/17 10:24:54;;;;;;;9.20;2.35;;;31.40;50.50;;;;;;5007034;28;20026;-49
2022/07/17 10:27:22;;;;;;;5.28;1.85;;;31.20;52.30;;;;;;5007766;28;20624;-46
2022/07/17 10:30:04;;;;;;;6.53;1.50;;;30.80;51.10;;;;;;5007938;28;20463;-48
2022/07/17 10:32:30;;;;;;;7.18;1.67;;;30.70;51.60;;;;;;5003160;28;20026;-47
2022/07/17 10:35:16;;;;;;;5.75;1.73;;;31.30;52.00;;;;;;5038124;28;20022;-47
2022/07/17 10:37:42;;;;;;;5.60;1.83;;;31.70;51.10;;;;;;5006723;28;20556;-46
2022/07/17 10:40:14;;;;;;;7.60;2.08;;;31.50;49.80;;;;;;5007861;28;20029;-47
2022/07/17 10:42:56;;;;;;;3.97;1.75;;;29.30;50.10;;;;;;5008172;28;20056;-47
2022/07/17 10:45:42;;;;;;;4.03;1.40;;;31.00;50.00;;;;;;5007568;28;20061;-48
2022/07/17 10:48:20;;;;;;;5.25;1.77;;;31.30;50.80;;;;;;5007288;28;20372;-46
2022/07/17 10:50:51;;;;;;;5.68;1.73;;;31.80;50.00;;;;;;5006706;28;20114;-48
2022/07/17 10:53:23;;;;;;;4.68;1.70;;;32.30;49.90;;;;;;5006898;28;20030;-48
2022/07/17 10:56:08;;;;;;;5.00;1.48;;;32.70;48.90;;;;;;5006473;28;20386;-47
2022/07/17 10:58:42;;;;;;;6.85;2.15;;;33.30;47.70;;;;;;5007100;28;20097;-46
2022/07/17 11:01:13;;;;;;;5.03;1.63;;;33.30;48.30;;;;;;5005653;28;20022;-49
2022/07/17 11:03:42;;;;;;;3.65;1.55;;;33.40;47.40;;;;;;5001306;28;20030;-48
2022/07/17 11:06:14;;;;;;;4.47;1.60;;;33.30;47.50;;;;;;5089519;28;20027;-48
2022/07/17 11:08:49;;;;;;;9.02;2.08;;;33.00;46.50;;;;;;5090051;28;20489;-50
2022/07/17 11:11:17;;;;;;;4.95;1.88;;;32.30;46.90;;;;;;5088476;28;20032;-49
2022/07/17 11:13:43;;;;;;;10.32;1.88;;;31.90;48.30;;;;;;5088304;28;20424;-47
2022/07/17 11:16:09;;;;;;;5.53;2.03;;;33.10;47.50;;;;;;5089070;28;20024;-48
2022/07/17 11:18:36;;;;;;;4.68;1.73;;;33.40;47.90;;;;;;5089276;28;20060;-47
2022/07/17 11:21:03;;;;;;;3.75;1.85;;;33.60;45.10;;;;;;5088124;28;20016;-48
2022/07/17 11:23:32;;;;;;;4.60;1.70;;;33.60;45.30;;;;;;5089509;28;20039;-48
2022/07/17 11:26:00;;;;;;;5.10;1.60;;;33.00;46.10;;;;;;5088936;28;20163;-47
2022/07/17 11:28:40;;;;;;;5.75;1.55;;;33.80;45.80;;;;;;5076254;28;20027;-49
2022/07/17 11:31:23;;;;;;;5.78;1.60;;;32.70;46.60;;;;;;5015321;28;20020;-46
2022/07/17 11:33:57;;;;;;;7.85;1.70;;;33.00;47.10;;;;;;5088827;28;20020;-49
2022/07/17 11:36:27;;;;;;;3.63;1.50;;;33.20;46.90;;;;;;5087551;28;20026;-48
2022/07/17 11:38:55;;;;;;;4.95;1.77;;;33.30;46.20;;;;;;5089265;28;20666;-47
2022/07/17 11:41:20;;;;;;;3.25;1.58;;;32.20;45.50;;;;;;5087970;28;20512;-48
2022/07/17 11:43:47;;;;;;;6.30;1.52;;;32.10;47.20;;;;;;5088945;28;20099;-47
2022/07/17 11:46:14;;;;;;;6.32;1.85;;;32.30;47.00;;;;;;5088727;28;20020;-49
2022/07/17 11:48:42;;;;;;;4.25;1.73;;;32.10;48.20;;;;;;5088880;28;20028;-49
2022/07/17 11:51:07;;;;;;;6.10;1.70;;;32.30;47.70;;;;;;5089033;28;20016;-47
2022/07/17 11:53:35;;;;;;;4.35;1.40;;;33.70;45.90;;;;;;5089263;28;20021;-46
2022/07/17 11:56:00;;;;;;;7.60;2.10;;;33.50;46.10;;;;;;5088692;28;20020;-46
2022/07/17 11:58:27;;;;;;;10.52;1.67;;;34.00;44.60;;;;;;5078081;28;20417;-47
2022/07/17 12:01:03;;;;;;;7.80;1.90;;;33.50;44.40;;;;;;5033759;28;20035;-49
2022/07/17 12:03:29;;;;;;;7.60;1.65;;;33.30;44.60;;;;;;4985532;28;20026;-49
2022/07/17 12:05:54;;;;;;;7.68;1.90;;;32.80;46.10;;;;;;5002405;28;20103;-47
2022/07/17 12:08:20;;;;;;;4.10;1.73;;;32.60;46.20;;;;;;4985460;28;20424;-48
2022/07/17 12:10:47;;;;;;;4.72;1.73;;;32.30;46.40;;;;;;4988384;28;20399;-49
2022/07/17 12:13:14;;;;;;;4.63;2.00;;;31.60;48.60;;;;;;4986665;28;20400;-46
2022/07/17 12:15:42;;;;;;;6.05;2.08;;;31.00;47.90;;;;;;5030283;28;20039;-46
2022/07/17 12:18:20;;;;;;;4.50;1.73;;;30.50;49.00;;;;;;5021956;28;20020;-46
2022/07/17 12:20:50;;;;;;;5.35;1.75;;;30.00;49.20;;;;;;5031667;28;20049;-45
2022/07/17 12:23:34;;;;;;;3.83;1.40;;;29.80;49.70;;;;;;4981110;28;20033;-44
2022/07/17 12:26:16;;;;;;;6.03;1.60;;;29.60;50.00;;;;;;4966424;28;20024;-45
2022/07/17 12:28:43;;;;;;;4.40;1.70;;;29.40;49.80;;;;;;4971557;28;20019;-45
2022/07/17 12:31:13;;;;;;;6.53;1.65;;;29.10;51.00;;;;;;5045422;28;20046;-44
2022/07/17 12:33:40;;;;;;;6.90;1.92;;;28.80;49.60;;;;;;5029512;28;20020;-44
2022/07/17 12:36:05;;;;;;;6.95;2.03;;;27.90;51.40;;;;;;4985534;28;20030;-45
2022/07/17 12:38:31;;;;;;;4.18;1.42;;;27.90;52.20;;;;;;5012429;28;20174;-44
2022/07/17 12:40:57;;;;;;;5.72;1.73;;;27.60;53.20;;;;;;4984997;28;20022;-44
2022/07/17 12:43:23;;;;;;;4.30;1.50;;;27.80;51.90;;;;;;4985518;28;20023;-44
2022/07/17 12:45:49;;;;;;;3.08;1.50;;;28.00;51.70;;;;;;4985561;28;20027;-45